Accueil
METAR-TAF:

METAR-TAF

Aéroports :

Anaktuvuk Pass, Alaska, États-Unis

latitude: 68-08-01N, longitude: 151-44-36W, altitude: 641 m

Observation

Le bulletin a été fait il y a 12 minutes, à 04:56 UTC
Vent 13 kt de sud
Température -14°C
Humidité 66%
Pression 996 hPa
Visibilité: 16.1 km
Nuages fragmentés à une hauteur de 5500 ft

METAR: PAKP 080456Z AUTO 17013KT 10SM BKN055 M14/M19 A2942 RMK AO2 SLP035 T11391194 FZRANO

Heure: 20:08 (05:08 UTC)


TAF: absent

Observations et prévisions météorologiques de plus de 4000 aéroports (messages METAR et TAF).

Les stations disponibles sont représentées par des disques jaunes et rouges sur la carte.

Passer la souris dessus pour voir le nom de la station.

Cliquer dessus pour voir les observations et prévisions météorologiques.

Pour changer de carte: cliquez sur les boutons verts avec une croix noire pour zoomer, sur le bouton vert avec un tiret pour effectuer un zoom arrière, ou sur les flèches vertes pour les cartes adjacentes.


METAR-TAF: